createdAt,value
2022-12-25T00:01:44.425Z,6.00
2022-12-25T00:06:47.252Z,6.40
2022-12-25T00:11:50.101Z,12.40
2022-12-25T00:16:52.960Z,10.10
2022-12-25T00:21:55.776Z,9.40
2022-12-25T00:26:58.580Z,8.20
2022-12-25T00:32:01.525Z,8.80
2022-12-25T00:37:04.644Z,9.10
2022-12-25T00:42:19.452Z,9.50
2022-12-25T00:47:22.415Z,9.20
2022-12-25T00:52:25.251Z,18.10
2022-12-25T00:57:28.060Z,13.80
2022-12-25T01:02:31.052Z,12.30
2022-12-25T01:07:34.036Z,11.80
2022-12-25T01:12:40.661Z,12.10
2022-12-25T01:17:44.166Z,8.40
2022-12-25T01:22:47.488Z,8.10
2022-12-25T01:27:50.289Z,11.80
2022-12-25T01:32:53.070Z,14.10
2022-12-25T01:37:55.903Z,15.60
2022-12-25T01:42:58.712Z,10.10
2022-12-25T01:48:06.068Z,10.80
2022-12-25T01:53:09.371Z,9.50
2022-12-25T01:58:12.318Z,5.80
2022-12-25T02:03:15.312Z,12.20
2022-12-25T02:08:20.748Z,13.80
2022-12-25T02:13:23.518Z,17.60
2022-12-25T02:18:51.141Z,14.60
2022-12-25T02:24:28.240Z,12.90
2022-12-25T02:29:42.839Z,13.30
2022-12-25T02:35:13.526Z,10.00
2022-12-25T02:40:21.186Z,9.00
2022-12-25T02:46:19.257Z,8.00
2022-12-25T02:51:45.880Z,8.00
2022-12-25T02:57:08.816Z,10.20
2022-12-25T03:02:31.588Z,9.70
2022-12-25T03:07:39.667Z,11.40
2022-12-25T03:12:53.728Z,10.30
2022-12-25T03:18:00.246Z,9.90
2022-12-25T03:23:22.472Z,12.70
2022-12-25T03:28:25.489Z,13.80
2022-12-25T03:33:47.164Z,14.50
2022-12-25T03:39:21.289Z,27.90
2022-12-25T03:44:51.443Z,22.00
2022-12-25T03:50:23.788Z,15.00
2022-12-25T03:55:59.429Z,16.20
2022-12-25T04:01:21.113Z,19.90
2022-12-25T04:06:42.477Z,15.00
2022-12-25T04:12:03.966Z,9.70
2022-12-25T04:17:32.670Z,7.20
2022-12-25T04:22:53.754Z,7.10
2022-12-25T04:28:20.875Z,12.10
2022-12-25T04:33:42.077Z,8.50
2022-12-25T04:38:44.868Z,8.50
2022-12-25T04:43:47.866Z,11.20
2022-12-25T04:48:50.670Z,15.60
2022-12-25T04:53:53.948Z,17.80
2022-12-25T04:58:56.732Z,9.30
2022-12-25T05:03:59.916Z,13.50
2022-12-25T05:09:03.270Z,15.40
2022-12-25T05:14:06.283Z,13.20
2022-12-25T05:19:09.330Z,15.60
2022-12-25T05:24:12.191Z,15.20
2022-12-25T05:29:15.139Z,12.90
2022-12-25T05:34:17.959Z,14.00
2022-12-25T05:39:20.746Z,13.80
2022-12-25T05:44:23.802Z,14.60
2022-12-25T05:49:26.653Z,15.10
2022-12-25T05:54:29.505Z,12.80
2022-12-25T05:59:33.576Z,14.20
2022-12-25T06:04:36.741Z,14.10
2022-12-25T06:09:39.606Z,13.70
2022-12-25T06:14:42.440Z,14.90
2022-12-25T06:19:45.293Z,17.80
2022-12-25T06:24:48.140Z,15.90
2022-12-25T06:29:51.202Z,16.70
2022-12-25T06:34:54.029Z,18.40
2022-12-25T06:39:56.840Z,17.90
2022-12-25T06:44:59.892Z,14.90
2022-12-25T06:50:02.724Z,17.20
2022-12-25T06:55:05.905Z,15.60
2022-12-25T07:00:10.720Z,16.50
2022-12-25T07:05:13.689Z,18.10
2022-12-25T07:10:16.631Z,13.70
2022-12-25T07:15:19.423Z,11.70
2022-12-25T07:20:22.439Z,19.50
2022-12-25T07:25:25.212Z,18.40
2022-12-25T07:30:29.216Z,16.80
2022-12-25T07:35:32.032Z,14.30
2022-12-25T07:40:35.567Z,14.10
2022-12-25T07:45:39.289Z,14.30
2022-12-25T07:50:42.125Z,20.00
2022-12-25T07:55:44.904Z,13.90
2022-12-25T08:00:47.832Z,21.80
2022-12-25T08:05:50.755Z,29.10
2022-12-25T08:10:53.522Z,30.80
2022-12-25T08:16:01.148Z,27.60
2022-12-25T08:21:06.808Z,35.30
2022-12-25T08:26:13.639Z,34.10
2022-12-25T08:31:20.464Z,45.00
2022-12-25T08:36:24.390Z,50.30
2022-12-25T08:41:27.721Z,31.90
2022-12-25T08:46:30.865Z,43.70
2022-12-25T08:51:34.580Z,34.30
2022-12-25T08:56:37.423Z,34.50
2022-12-25T09:01:40.252Z,38.90
2022-12-25T09:06:43.233Z,37.60
2022-12-25T09:11:46.048Z,33.00
2022-12-25T09:16:51.595Z,44.30
2022-12-25T09:21:54.508Z,32.00
2022-12-25T09:26:57.304Z,35.80
2022-12-25T09:32:00.262Z,37.20
2022-12-25T09:37:03.763Z,21.50
2022-12-25T09:42:20.054Z,25.80
2022-12-25T09:47:27.995Z,19.60
2022-12-25T09:52:53.127Z,21.20
2022-12-25T09:58:01.675Z,14.60
2022-12-25T10:03:23.205Z,13.70
2022-12-25T10:08:31.858Z,12.20
2022-12-25T10:13:37.648Z,16.30
2022-12-25T10:18:59.043Z,14.50
2022-12-25T10:24:07.976Z,13.00
2022-12-25T10:29:16.827Z,14.50
2022-12-25T10:34:19.853Z,14.10
2022-12-25T10:39:26.269Z,13.50
2022-12-25T10:44:29.221Z,17.20
2022-12-25T10:49:35.945Z,15.30
2022-12-25T10:54:38.762Z,16.70
2022-12-25T10:59:49.655Z,22.40
2022-12-25T11:05:09.742Z,18.10
2022-12-25T11:10:24.074Z,18.50
2022-12-25T11:15:44.770Z,15.40
2022-12-25T11:20:50.436Z,14.70
2022-12-25T11:26:04.137Z,12.80
2022-12-25T11:31:13.281Z,12.90
2022-12-25T11:36:23.049Z,16.10
2022-12-25T11:41:32.720Z,15.10
2022-12-25T11:46:45.449Z,8.00
2022-12-25T11:51:52.044Z,13.10
2022-12-25T11:57:00.140Z,17.20
2022-12-25T12:02:21.894Z,13.30
2022-12-25T12:07:29.314Z,15.20
2022-12-25T12:12:55.048Z,14.80
2022-12-25T12:18:28.779Z,12.30
2022-12-25T12:23:35.929Z,14.50
2022-12-25T12:28:46.319Z,17.50
2022-12-25T12:33:55.047Z,9.80
2022-12-25T12:38:59.148Z,13.90
2022-12-25T12:44:05.247Z,11.20
2022-12-25T12:49:22.268Z,14.60
2022-12-25T12:54:27.942Z,10.20
2022-12-25T12:59:46.968Z,11.00
2022-12-25T13:05:05.874Z,8.90
2022-12-25T13:10:13.751Z,10.60
2022-12-25T13:15:16.610Z,11.80
2022-12-25T13:20:55.285Z,18.70
2022-12-25T13:26:14.858Z,16.90
2022-12-25T13:31:20.886Z,12.50
2022-12-25T13:36:24.971Z,13.30
2022-12-25T13:41:59.379Z,15.90
2022-12-25T13:47:27.708Z,11.40
2022-12-25T13:52:38.093Z,19.50
2022-12-25T13:58:11.216Z,13.20
2022-12-25T14:03:37.328Z,14.60
2022-12-25T14:08:40.313Z,12.50
2022-12-25T14:13:45.300Z,18.20
2022-12-25T14:18:53.943Z,11.90
2022-12-25T14:23:57.425Z,15.90
2022-12-25T14:29:11.047Z,19.60
2022-12-25T14:34:22.088Z,20.90
2022-12-25T14:39:35.542Z,22.10
2022-12-25T14:44:40.121Z,16.50
2022-12-25T14:49:43.637Z,20.70
2022-12-25T14:55:07.825Z,14.60
2022-12-25T15:00:32.437Z,13.20
2022-12-25T15:05:36.779Z,13.10
2022-12-25T15:16:14.405Z,16.90
2022-12-25T15:21:20.199Z,22.30
2022-12-25T15:26:23.227Z,15.00
2022-12-25T15:31:30.480Z,14.60
2022-12-25T15:36:34.310Z,14.80
2022-12-25T15:42:13.877Z,16.10
2022-12-25T15:47:20.307Z,12.30
2022-12-25T15:52:23.154Z,17.60
2022-12-25T15:57:26.449Z,18.40
2022-12-25T16:02:29.492Z,11.80
2022-12-25T16:07:33.681Z,18.70
2022-12-25T16:12:36.509Z,17.40
2022-12-25T16:17:39.680Z,22.10
2022-12-25T16:22:42.541Z,8.90
2022-12-25T16:27:45.801Z,15.40
2022-12-25T16:32:50.275Z,10.90
2022-12-25T16:37:53.086Z,15.30
2022-12-25T16:42:56.358Z,17.10
2022-12-25T16:47:59.196Z,17.70
2022-12-25T16:53:02.070Z,15.20
2022-12-25T16:58:06.231Z,23.40
2022-12-25T17:03:09.160Z,21.10
2022-12-25T17:08:12.061Z,24.50
2022-12-25T17:13:14.859Z,21.20
2022-12-25T17:18:21.882Z,21.70
2022-12-25T17:23:24.783Z,24.70
2022-12-25T17:28:27.657Z,21.50
2022-12-25T17:33:30.749Z,23.60
2022-12-25T17:38:34.932Z,23.90
2022-12-25T17:43:38.519Z,19.40
2022-12-25T17:48:41.909Z,20.80
2022-12-25T17:53:47.439Z,22.30
2022-12-25T17:58:52.358Z,24.60
2022-12-25T18:03:55.464Z,17.70
2022-12-25T18:08:58.428Z,24.80
2022-12-25T18:14:04.079Z,15.20
2022-12-25T18:19:07.050Z,24.90
2022-12-25T18:24:10.258Z,22.70
2022-12-25T18:29:13.067Z,27.10
2022-12-25T18:34:15.948Z,23.80
2022-12-25T18:39:19.244Z,24.90
2022-12-25T18:44:22.071Z,30.50
2022-12-25T18:49:24.907Z,29.40
2022-12-25T18:54:27.728Z,18.30
2022-12-25T18:59:31.250Z,32.70
2022-12-25T19:04:34.535Z,26.10
2022-12-25T19:09:37.804Z,26.70
2022-12-25T19:14:47.691Z,17.50
2022-12-25T19:19:51.165Z,29.00
2022-12-25T19:24:54.035Z,33.00
2022-12-25T19:29:56.831Z,24.20
2022-12-25T19:35:04.426Z,31.60
2022-12-25T19:40:07.921Z,22.90
2022-12-25T19:45:11.184Z,26.30
2022-12-25T19:50:14.095Z,19.10
2022-12-25T19:55:20.191Z,20.60
2022-12-25T20:00:23.033Z,27.80
2022-12-25T20:05:25.903Z,32.20
2022-12-25T20:10:28.723Z,20.80
2022-12-25T20:15:31.553Z,22.70
2022-12-25T20:20:34.417Z,30.60
2022-12-25T20:25:43.431Z,34.00
2022-12-25T20:30:46.278Z,17.80
2022-12-25T20:35:49.557Z,21.90
2022-12-25T20:41:26.106Z,25.60
2022-12-25T20:46:24.859Z,29.60
2022-12-25T20:51:28.266Z,29.20
2022-12-25T20:56:31.231Z,24.30
2022-12-25T21:01:34.178Z,21.70
2022-12-25T21:06:37.081Z,21.70
2022-12-25T21:11:39.972Z,30.30
2022-12-25T21:16:44.445Z,22.20
2022-12-25T21:21:50.136Z,22.80
2022-12-25T21:26:52.942Z,23.00
2022-12-25T21:32:14.451Z,19.80
2022-12-25T21:37:17.308Z,21.50
2022-12-25T21:42:20.107Z,23.40
2022-12-25T21:47:22.890Z,25.60
2022-12-25T21:52:25.734Z,18.10
2022-12-25T21:57:28.508Z,24.70
2022-12-25T22:02:31.896Z,26.10
2022-12-25T22:07:35.443Z,23.50
2022-12-25T22:12:56.503Z,26.00
2022-12-25T22:18:17.710Z,19.70
2022-12-25T22:23:20.467Z,22.80
2022-12-25T22:28:23.284Z,22.60
2022-12-25T22:33:28.076Z,20.80
2022-12-25T22:38:31.373Z,20.30
2022-12-25T22:44:14.540Z,16.80
2022-12-25T22:48:57.327Z,15.70
2022-12-25T22:54:03.527Z,21.30
2022-12-25T22:59:07.027Z,12.30
2022-12-25T23:04:11.165Z,18.80
2022-12-25T23:09:22.098Z,19.10
2022-12-25T23:14:39.230Z,16.70
2022-12-25T23:20:13.682Z,19.10
2022-12-25T23:25:35.133Z,15.80
2022-12-25T23:30:37.982Z,17.30
2022-12-25T23:35:40.829Z,12.30
2022-12-25T23:40:43.623Z,22.40
2022-12-25T23:45:46.453Z,17.70
2022-12-25T23:50:49.298Z,19.20
2022-12-25T23:55:55.782Z,20.00
